First View, Colorado
Current Conditions -  °F | °C
As of 4:53 AM on Tuesday 21 Oct 2014 (Local Time) from KITR Reporting Station
Haze Haze  
Wind Chill: 52°   Ceiling: Unl
Heat Index: 52°   Visibility: 6mi
Dew Point: 50°   Wind: 13mph
Humidity: 93%   Direction: 190°S
Pressure: 30.07"   Gusts: NA
Location:  38.8478°N, 102.453°W
Report Text: KITR 211053Z AUTO 19011KT 6SM BR CLR 11/10 A3007 RMK AO2 SLP144 T01110100
Loading
Personal Weather Stations






























Interactive Weather Map
Tropical Storm Tracking
New forecast layout! Learn more

10-Day Weather Forecast

Advertisements
Track Severe Weather on mobile